createdAt,value
2019-02-27T00:00:37.135Z,101716.83
2019-02-27T00:05:41.707Z,101723.77
2019-02-27T00:10:45.898Z,101705.52
2019-02-27T00:15:49.371Z,101709.47
2019-02-27T00:20:52.855Z,101713.63
2019-02-27T00:25:56.334Z,101708.64
2019-02-27T00:30:59.820Z,101705.66
2019-02-27T00:36:03.305Z,101701.88
2019-02-27T00:41:06.782Z,101708.22
2019-02-27T00:46:10.736Z,101699.69
2019-02-27T00:51:15.470Z,101697.50
2019-02-27T00:56:18.956Z,101698.09
2019-02-27T01:01:22.434Z,101708.42
2019-02-27T01:06:25.922Z,101704.84
2019-02-27T01:11:29.404Z,101708.20
2019-02-27T01:16:32.888Z,101699.89
2019-02-27T01:21:36.372Z,101689.97
2019-02-27T01:26:39.862Z,101689.17
2019-02-27T01:31:43.344Z,101685.60
2019-02-27T01:36:46.836Z,101677.08
2019-02-27T01:41:50.316Z,101672.11
2019-02-27T01:46:54.602Z,101667.95
2019-02-27T01:51:59.172Z,101656.06
2019-02-27T01:57:03.645Z,101648.70
2019-02-27T02:02:07.134Z,101642.58
2019-02-27T02:07:10.780Z,101626.52
2019-02-27T02:12:20.119Z,101617.44
2019-02-27T02:17:26.637Z,101615.05
2019-02-27T02:22:33.160Z,101614.25
2019-02-27T02:27:45.473Z,101619.79
2019-02-27T02:33:20.986Z,101613.23
2019-02-27T02:38:33.562Z,101605.72
2019-02-27T02:44:13.737Z,101595.00
2019-02-27T02:49:29.283Z,101596.19
2019-02-27T02:54:47.603Z,101594.80
2019-02-27T03:00:18.398Z,101595.20
2019-02-27T03:05:36.676Z,101602.32
2019-02-27T03:10:46.133Z,101602.32
2019-02-27T03:16:05.711Z,101594.59
2019-02-27T03:21:17.768Z,101592.81
2019-02-27T03:26:32.620Z,101591.64
2019-02-27T03:31:57.689Z,101592.60
2019-02-27T03:37:04.993Z,101590.42
2019-02-27T03:42:17.204Z,101589.24
2019-02-27T03:47:38.687Z,101594.58
2019-02-27T03:53:03.727Z,101588.44
2019-02-27T03:58:21.924Z,101581.09
2019-02-27T04:03:40.196Z,101591.01
2019-02-27T04:08:57.065Z,101586.64
2019-02-27T04:14:05.010Z,101580.30
2019-02-27T04:19:05.728Z,101577.11
2019-02-27T04:24:09.195Z,101575.34
2019-02-27T04:29:12.678Z,101573.16
2019-02-27T04:34:16.151Z,101577.91
2019-02-27T04:39:19.622Z,101577.72
2019-02-27T04:44:23.093Z,101573.16
2019-02-27T04:49:26.569Z,101567.41
2019-02-27T04:54:30.038Z,101563.24
2019-02-27T04:59:33.510Z,101569.59
2019-02-27T05:04:36.990Z,101567.81
2019-02-27T05:09:40.450Z,101570.00
2019-02-27T05:14:43.925Z,101555.55
2019-02-27T05:19:47.397Z,101561.47
2019-02-27T05:24:50.870Z,101557.69
2019-02-27T05:29:54.347Z,101550.55
2019-02-27T05:34:57.827Z,101550.34
2019-02-27T05:40:01.305Z,101548.16
2019-02-27T05:45:07.215Z,101549.55
2019-02-27T05:50:12.125Z,101539.84
2019-02-27T05:55:15.596Z,101539.05
2019-02-27T06:00:21.709Z,101536.09
2019-02-27T06:05:25.188Z,101531.94
2019-02-27T06:10:28.657Z,101536.86
2019-02-27T06:15:32.128Z,101526.98
2019-02-27T06:20:35.642Z,101524.80
2019-02-27T06:25:39.108Z,101519.84
2019-02-27T06:30:42.587Z,101517.07
2019-02-27T06:35:46.129Z,101524.80
2019-02-27T06:40:49.606Z,101514.89
2019-02-27T06:45:54.250Z,101522.41
2019-02-27T06:50:58.318Z,101523.79
2019-02-27T06:56:03.981Z,101520.22
2019-02-27T07:01:09.726Z,101525.17
2019-02-27T07:06:12.793Z,101520.22
2019-02-27T07:11:16.535Z,101517.45
2019-02-27T07:16:20.474Z,101518.04
2019-02-27T07:21:25.211Z,101522.20
2019-02-27T07:26:28.685Z,101520.02
2019-02-27T07:31:32.159Z,101513.30
2019-02-27T07:36:35.965Z,101504.05
2019-02-27T07:41:40.832Z,101498.92
2019-02-27T07:46:44.308Z,101495.98
2019-02-27T07:51:48.580Z,101501.32
2019-02-27T07:56:52.144Z,101496.88
2019-02-27T08:01:55.629Z,101492.92
2019-02-27T08:06:59.092Z,101501.11
2019-02-27T08:12:02.564Z,101494.39
2019-02-27T08:17:17.015Z,101497.81
2019-02-27T08:22:11.232Z,101489.46
2019-02-27T08:27:14.704Z,101482.77
2019-02-27T08:32:18.160Z,101478.78
2019-02-27T08:37:21.624Z,101476.89
2019-02-27T08:42:25.081Z,101471.63
2019-02-27T08:47:28.545Z,101467.95
2019-02-27T08:52:32.005Z,101466.98
2019-02-27T08:57:35.468Z,101459.48
2019-02-27T09:02:39.711Z,101453.23
2019-02-27T09:07:43.220Z,101443.36
2019-02-27T09:12:48.872Z,101440.39
2019-02-27T09:17:51.830Z,101434.09
2019-02-27T09:22:55.872Z,101437.28
2019-02-27T09:27:59.442Z,101436.49
2019-02-27T09:33:02.903Z,101434.94
2019-02-27T09:38:06.437Z,101437.54
2019-02-27T09:43:09.959Z,101424.90
2019-02-27T09:48:13.437Z,101408.86
2019-02-27T09:53:16.912Z,101401.17
2019-02-27T09:58:21.985Z,101392.86
2019-02-27T10:03:25.541Z,101396.64
2019-02-27T10:08:29.006Z,101392.27
2019-02-27T10:13:35.500Z,101388.11
2019-02-27T10:18:38.592Z,101375.44
2019-02-27T10:23:42.047Z,101374.47
2019-02-27T10:28:45.511Z,101368.36
2019-02-27T10:33:49.957Z,101365.17
2019-02-27T10:38:53.425Z,101358.45
2019-02-27T10:43:57.319Z,101340.82
2019-02-27T10:49:00.736Z,101331.95
2019-02-27T10:54:05.495Z,101327.99
2019-02-27T10:59:09.041Z,101317.88
2019-02-27T11:04:12.501Z,101315.31
2019-02-27T11:09:24.275Z,101312.77
2019-02-27T11:14:31.649Z,101309.38
2019-02-27T11:19:34.794Z,101308.40
2019-02-27T11:24:38.113Z,101292.77
2019-02-27T11:29:41.574Z,101290.41
2019-02-27T11:34:45.620Z,101277.92
2019-02-27T11:39:50.244Z,101268.22
2019-02-27T11:44:53.743Z,101263.42
2019-02-27T11:49:57.214Z,101252.08
2019-02-27T11:55:00.705Z,101241.56
2019-02-27T12:00:06.032Z,101231.91
2019-02-27T12:05:12.269Z,101216.68
2019-02-27T12:10:18.469Z,101217.48
2019-02-27T12:15:22.192Z,101209.60
2019-02-27T12:20:26.113Z,101204.43
2019-02-27T12:25:30.249Z,101194.95
2019-02-27T12:30:37.121Z,101187.42
2019-02-27T12:35:39.183Z,101159.71
2019-02-27T12:40:42.665Z,101159.71
2019-02-27T12:45:46.145Z,101157.73
2019-02-27T12:50:49.617Z,101139.91
2019-02-27T12:55:53.094Z,101131.56
2019-02-27T13:00:56.572Z,101122.06
2019-02-27T13:06:01.004Z,101115.72
2019-02-27T13:11:07.731Z,101116.13
2019-02-27T13:16:14.241Z,101102.66
2019-02-27T13:21:20.206Z,101086.82
2019-02-27T13:26:20.790Z,101086.82
2019-02-27T13:31:24.270Z,101070.77
2019-02-27T13:36:27.751Z,101066.23
2019-02-27T13:41:31.248Z,101050.97
2019-02-27T13:46:34.718Z,101039.28
2019-02-27T13:51:40.246Z,101034.92
2019-02-27T13:56:43.411Z,101039.09
2019-02-27T14:01:46.898Z,101025.22
2019-02-27T14:06:50.374Z,101006.00
2019-02-27T14:11:58.384Z,101000.06
2019-02-27T14:16:59.062Z,100986.41
2019-02-27T14:22:07.116Z,100978.88
2019-02-27T14:27:07.746Z,100973.13
2019-02-27T14:32:11.226Z,100963.63
2019-02-27T14:37:16.536Z,100969.14
2019-02-27T14:42:20.776Z,100964.79
2019-02-27T14:47:24.803Z,100957.20
2019-02-27T14:52:28.286Z,100946.86
2019-02-27T14:57:31.751Z,100938.73
2019-02-27T15:02:35.250Z,100930.96
2019-02-27T15:07:38.723Z,100918.32
2019-02-27T15:12:42.193Z,100904.09
2019-02-27T15:17:45.672Z,100896.12
2019-02-27T15:22:52.512Z,100889.19
2019-02-27T15:27:58.277Z,100883.44
2019-02-27T15:33:03.788Z,100874.48
2019-02-27T15:38:05.163Z,100870.95
2019-02-27T15:43:11.444Z,100861.65
2019-02-27T15:48:13.832Z,100848.97
2019-02-27T15:53:17.294Z,100846.63
2019-02-27T15:58:20.759Z,100843.06
2019-02-27T16:03:24.219Z,100830.37
2019-02-27T16:08:27.681Z,100821.86
2019-02-27T16:13:31.981Z,100822.45
2019-02-27T16:18:36.929Z,100808.20
2019-02-27T16:23:41.171Z,100808.20
2019-02-27T16:28:46.166Z,100806.45
2019-02-27T16:33:49.819Z,100812.95
2019-02-27T16:38:53.294Z,100804.64
2019-02-27T16:43:56.751Z,100791.16
2019-02-27T16:49:00.212Z,100786.80
2019-02-27T16:54:03.872Z,100781.45
2019-02-27T16:59:08.588Z,100788.58
2019-02-27T17:04:12.531Z,100785.16
2019-02-27T17:09:15.987Z,100773.84
2019-02-27T17:14:21.171Z,100773.41
2019-02-27T17:19:24.638Z,100758.60
2019-02-27T17:24:28.102Z,100753.14
2019-02-27T17:29:31.564Z,100753.14
2019-02-27T17:34:35.489Z,100750.75
2019-02-27T17:39:38.975Z,100750.55
2019-02-27T17:44:42.437Z,100740.19
2019-02-27T17:49:45.903Z,100736.20
2019-02-27T17:54:50.856Z,100727.88
2019-02-27T18:05:11.098Z,100718.25
2019-02-27T18:10:15.384Z,100706.52
2019-02-27T18:15:23.502Z,100698.94
2019-02-27T18:20:27.042Z,100700.48
2019-02-27T18:46:56.264Z,100646.12
2019-02-27T18:51:59.392Z,100636.53
2019-02-27T18:57:02.853Z,100637.50
2019-02-27T19:02:07.581Z,100633.72
2019-02-27T19:07:12.785Z,100622.20
2019-02-27T19:12:16.415Z,100621.56
2019-02-27T19:17:19.891Z,100613.02
2019-02-27T19:22:23.404Z,100602.31
2019-02-27T19:27:26.943Z,100597.01
2019-02-27T19:32:30.752Z,100589.79
2019-02-27T19:37:36.340Z,100583.77
2019-02-27T19:42:48.305Z,100582.03
2019-02-27T19:47:54.599Z,100572.59
2019-02-27T19:52:57.021Z,100562.75
2019-02-27T19:58:00.555Z,100561.81
2019-02-27T20:03:04.095Z,100552.95
2019-02-27T20:08:10.801Z,100541.09
2019-02-27T20:13:13.047Z,100533.42
2019-02-27T20:18:16.685Z,100530.08
2019-02-27T20:23:20.141Z,100523.20
2019-02-27T20:28:23.601Z,100519.07
2019-02-27T20:33:27.131Z,100510.20
2019-02-27T20:38:30.595Z,100507.84
2019-02-27T20:43:34.064Z,100494.19
2019-02-27T20:48:39.732Z,100483.31
2019-02-27T20:53:42.720Z,100480.60
2019-02-27T20:58:51.101Z,100478.42
2019-02-27T21:03:51.370Z,100471.70
2019-02-27T21:08:54.830Z,100470.13
2019-02-27T21:13:58.296Z,100470.92
2019-02-27T21:19:02.590Z,100453.68
2019-02-27T21:24:06.703Z,100442.36
2019-02-27T21:29:10.162Z,100439.18
2019-02-27T21:34:13.623Z,100425.91
2019-02-27T21:39:17.153Z,100408.66
2019-02-27T21:44:25.505Z,100415.00
2019-02-27T21:49:25.801Z,100399.56
2019-02-27T21:54:29.268Z,100387.86
2019-02-27T21:59:32.729Z,100379.55
2019-02-27T22:04:36.188Z,100371.03
2019-02-27T22:09:39.732Z,100359.34
2019-02-27T22:14:43.194Z,100353.79
2019-02-27T22:19:46.663Z,100347.45
2019-02-27T22:24:52.268Z,100350.41
2019-02-27T22:29:55.949Z,100340.11
2019-02-27T22:35:02.800Z,100332.20
2019-02-27T22:40:07.577Z,100328.03
2019-02-27T22:45:16.599Z,100319.72
2019-02-27T22:50:21.101Z,100315.97
2019-02-27T22:55:24.578Z,100312.59
2019-02-27T23:00:44.132Z,100297.16
2019-02-27T23:05:47.801Z,100297.94
2019-02-27T23:10:51.453Z,100281.89
2019-02-27T23:15:57.807Z,100274.36
2019-02-27T23:21:00.138Z,100267.84
2019-02-27T23:26:03.706Z,100279.72
2019-02-27T23:31:07.250Z,100272.00
2019-02-27T23:36:10.729Z,100266.27
2019-02-27T23:41:14.212Z,100266.27
2019-02-27T23:46:18.489Z,100267.66
2019-02-27T23:51:22.746Z,100259.33
2019-02-27T23:56:26.227Z,100247.48
